Air Resources Laboratory banner image
Air Resources Laboratory web site National Oceanic and Atmospheric Administration (NOAA)

oh metar


KCGF 102345Z 00000KT 10SM CLR 23/13 A3007=